createdAt,value
2023-02-17T00:01:26.174Z,100100.94
2023-02-17T00:03:00.482Z,100105.25
2023-02-17T00:04:34.934Z,100103.56
2023-02-17T00:06:07.999Z,100100.94
2023-02-17T00:07:42.816Z,100098.28
2023-02-17T00:09:16.381Z,100094.72
2023-02-17T00:10:57.696Z,100093.78
2023-02-17T00:12:31.057Z,100097.09
2023-02-17T00:14:04.746Z,100090.09
2023-02-17T00:15:40.904Z,100086.47
2023-02-17T00:17:14.304Z,100092.38
2023-02-17T00:18:47.877Z,100088.78
2023-02-17T00:20:21.550Z,100093.91
2023-02-17T00:21:56.721Z,100086.91
2023-02-17T00:23:30.131Z,100085.19
2023-02-17T00:25:03.254Z,100084.34
2023-02-17T00:26:36.737Z,100079.16
2023-02-17T00:28:09.952Z,100080.13
2023-02-17T00:29:43.278Z,100089.63
2023-02-17T00:31:20.246Z,100084.50
2023-02-17T00:32:53.624Z,100069.75
2023-02-17T00:34:28.180Z,100070.50
2023-02-17T00:36:05.526Z,100081.75
2023-02-17T00:37:38.798Z,100073.16
2023-02-17T00:39:15.234Z,100062.81
2023-02-17T00:40:48.423Z,100067.16
2023-02-17T00:42:21.784Z,100062.81
2023-02-17T00:43:55.229Z,100055.06
2023-02-17T00:45:28.663Z,100063.78
2023-02-17T00:47:03.220Z,100056.78
2023-02-17T00:48:36.495Z,100059.38
2023-02-17T00:50:11.364Z,100051.59
2023-02-17T00:51:44.926Z,100055.00
2023-02-17T00:53:19.101Z,100066.28
2023-02-17T00:54:52.643Z,100054.09
2023-02-17T00:56:25.722Z,100057.47
2023-02-17T00:57:59.002Z,100059.06
2023-02-17T00:59:32.170Z,100056.47
2023-02-17T01:01:06.549Z,100050.38
2023-02-17T01:02:41.120Z,100053.81
2023-02-17T01:04:14.687Z,100047.72
2023-02-17T01:05:48.908Z,100055.59
2023-02-17T01:07:22.299Z,100049.50
2023-02-17T01:08:56.094Z,100044.28
2023-02-17T01:10:29.488Z,100047.72
2023-02-17T01:12:02.572Z,100043.28
2023-02-17T01:13:37.007Z,100039.72
2023-02-17T01:15:10.674Z,100046.63
2023-02-17T01:16:47.345Z,100035.38
2023-02-17T01:18:24.330Z,100033.72
2023-02-17T01:19:58.906Z,100042.34
2023-02-17T01:21:33.217Z,100039.72
2023-02-17T01:23:07.355Z,100033.56
2023-02-17T01:24:40.829Z,100040.53
2023-02-17T01:26:18.048Z,100039.66
2023-02-17T01:27:51.183Z,100036.16
2023-02-17T01:29:23.442Z,100038.69
2023-02-17T01:30:56.602Z,100030.03
2023-02-17T01:32:30.512Z,100031.72
2023-02-17T01:34:05.103Z,100039.53
2023-02-17T01:35:38.495Z,100026.50
2023-02-17T01:37:11.623Z,100022.88
2023-02-17T01:38:46.508Z,100024.59
2023-02-17T01:40:20.367Z,100023.72
2023-02-17T01:41:52.796Z,100009.81
2023-02-17T01:43:26.695Z,100018.41
2023-02-17T01:45:35.228Z,100022.78
2023-02-17T01:47:14.065Z,100013.09
2023-02-17T01:48:51.111Z,100014.56
2023-02-17T01:50:29.600Z,100020.50
2023-02-17T01:52:11.761Z,100030.81
2023-02-17T01:53:48.146Z,100011.81
2023-02-17T01:55:23.245Z,100010.88
2023-02-17T01:57:00.801Z,100022.06
2023-02-17T01:58:35.108Z,100018.63
2023-02-17T02:00:13.204Z,100022.13
2023-02-17T02:01:46.962Z,100003.13
2023-02-17T02:03:20.038Z,100004.00
2023-02-17T02:04:54.607Z,100007.53
2023-02-17T02:06:30.657Z,100003.22
2023-02-17T02:08:06.237Z,99999.63
2023-02-17T02:09:42.992Z,100009.97
2023-02-17T02:11:16.189Z,100000.41
2023-02-17T02:12:52.473Z,100004.72
2023-02-17T02:14:25.756Z,100008.06
2023-02-17T02:16:08.239Z,99998.56
2023-02-17T02:17:53.918Z,99997.81
2023-02-17T02:19:56.061Z,100004.81
2023-02-17T02:22:02.030Z,99997.88
2023-02-17T02:23:57.548Z,100004.78
2023-02-17T02:25:57.173Z,100000.38
2023-02-17T02:27:44.182Z,99996.03
2023-02-17T02:29:59.704Z,100002.88
2023-02-17T02:31:45.181Z,100003.66
2023-02-17T02:33:25.764Z,99985.22
2023-02-17T02:35:02.209Z,100004.34
2023-02-17T02:36:41.979Z,99997.31
2023-02-17T02:38:26.766Z,99996.59
2023-02-17T02:40:04.814Z,100000.09
2023-02-17T02:41:44.760Z,100004.47
2023-02-17T02:43:20.265Z,99999.22
2023-02-17T02:44:54.513Z,99993.84
2023-02-17T02:46:27.883Z,100004.22
2023-02-17T02:48:00.026Z,99985.84
2023-02-17T02:49:38.411Z,100012.00
2023-02-17T02:51:21.963Z,100013.72
2023-02-17T02:53:09.806Z,100009.47
2023-02-17T02:54:53.950Z,100007.78
2023-02-17T02:56:40.986Z,100004.41
2023-02-17T02:58:20.952Z,100010.53
2023-02-17T03:00:13.186Z,100012.25
2023-02-17T03:01:52.911Z,100007.03
2023-02-17T03:03:36.338Z,100008.78
2023-02-17T03:05:15.176Z,100002.72
2023-02-17T03:06:54.065Z,100020.91
2023-02-17T03:08:34.746Z,100010.59
2023-02-17T03:10:09.243Z,100009.81
2023-02-17T03:11:43.862Z,100009.81
2023-02-17T03:13:17.029Z,100011.53
2023-02-17T03:14:54.244Z,100009.81
2023-02-17T03:16:29.366Z,100021.91
2023-02-17T03:18:04.218Z,100023.66
2023-02-17T03:19:38.237Z,100015.78
2023-02-17T03:21:17.104Z,100011.28
2023-02-17T03:22:50.809Z,100013.84
2023-02-17T03:24:24.154Z,100013.81
2023-02-17T03:25:59.037Z,100016.31
2023-02-17T03:27:32.297Z,100021.44
2023-02-17T03:29:06.048Z,100020.66
2023-02-17T03:30:39.285Z,100020.63
2023-02-17T03:32:13.260Z,100021.44
2023-02-17T03:33:46.653Z,100025.84
2023-02-17T03:35:20.851Z,100033.63
2023-02-17T03:36:56.226Z,100026.69
2023-02-17T03:38:29.545Z,100033.63
2023-02-17T03:40:03.363Z,100024.88
2023-02-17T03:41:36.912Z,100029.13
2023-02-17T03:43:10.265Z,100024.59
2023-02-17T03:44:43.516Z,100021.03
2023-02-17T03:46:16.708Z,100028.59
2023-02-17T03:47:50.378Z,100029.28
2023-02-17T03:49:22.487Z,100020.59
2023-02-17T03:50:56.162Z,100024.06
2023-02-17T03:52:31.073Z,100026.66
2023-02-17T03:54:04.528Z,100025.81
2023-02-17T03:55:36.625Z,100024.16
2023-02-17T03:57:09.950Z,100024.16
2023-02-17T03:58:42.550Z,100025.91
2023-02-17T04:00:17.236Z,100015.63
2023-02-17T04:01:49.402Z,100012.13
2023-02-17T04:03:22.702Z,100022.53
2023-02-17T04:04:55.992Z,100019.91
2023-02-17T04:06:29.721Z,100017.31
2023-02-17T04:08:07.492Z,100023.25
2023-02-17T04:09:40.935Z,100027.59
2023-02-17T04:11:14.114Z,100018.91
2023-02-17T04:12:47.475Z,100026.66
2023-02-17T04:14:20.628Z,100024.03
2023-02-17T04:15:54.666Z,100030.88
2023-02-17T04:17:28.023Z,100030.03
2023-02-17T04:19:01.965Z,100025.78
2023-02-17T04:20:35.229Z,100024.88
2023-02-17T04:22:09.108Z,100031.84
2023-02-17T04:23:43.679Z,100025.91
2023-02-17T04:25:17.043Z,100026.88
2023-02-17T04:26:50.199Z,100025.97
2023-02-17T04:28:23.446Z,100024.31
2023-02-17T04:29:56.771Z,100028.59
2023-02-17T04:31:30.291Z,100040.63
2023-02-17T04:33:04.134Z,100036.25
2023-02-17T04:34:37.894Z,100031.00
2023-02-17T04:36:11.550Z,100034.34
2023-02-17T04:37:45.826Z,100042.09
2023-02-17T04:39:20.529Z,100047.22
2023-02-17T04:40:54.557Z,100042.91
2023-02-17T04:42:27.800Z,100047.94
2023-02-17T04:44:01.089Z,100041.72
2023-02-17T04:45:35.067Z,100049.44
2023-02-17T04:47:09.146Z,100041.78
2023-02-17T04:48:42.335Z,100048.78
2023-02-17T04:50:16.186Z,100031.31
2023-02-17T04:51:49.600Z,100040.84
2023-02-17T04:53:22.835Z,100039.06
2023-02-17T04:54:57.335Z,100044.34
2023-02-17T04:56:30.694Z,100046.94
2023-02-17T04:58:02.879Z,100052.94
2023-02-17T04:59:36.210Z,100043.53
2023-02-17T05:01:09.424Z,100045.22
2023-02-17T05:02:42.840Z,100043.56
2023-02-17T05:04:16.036Z,100048.88
2023-02-17T05:05:50.520Z,100059.31
2023-02-17T05:07:24.021Z,100042.16
2023-02-17T05:08:57.315Z,100055.16
2023-02-17T05:10:32.169Z,100055.16
2023-02-17T05:12:06.399Z,100056.91
2023-02-17T05:13:39.556Z,100054.31
2023-02-17T05:15:13.880Z,100062.16
2023-02-17T05:16:46.354Z,100055.31
2023-02-17T05:18:19.799Z,100059.69
2023-02-17T05:19:52.945Z,100052.91
2023-02-17T05:21:26.330Z,100064.16
2023-02-17T05:22:59.457Z,100059.91
2023-02-17T05:24:33.045Z,100058.25
2023-02-17T05:26:08.053Z,100057.44
2023-02-17T05:27:41.598Z,100061.72
2023-02-17T05:29:14.745Z,100067.69
2023-02-17T05:30:49.757Z,100072.78
2023-02-17T05:32:24.170Z,100071.00
2023-02-17T05:33:57.698Z,100076.19
2023-02-17T05:35:30.906Z,100076.25
2023-02-17T05:37:03.315Z,100077.97
2023-02-17T05:38:37.265Z,100078.72
2023-02-17T05:40:11.398Z,100088.25
2023-02-17T05:41:45.956Z,100083.97
2023-02-17T05:43:19.358Z,100087.53
2023-02-17T05:44:52.599Z,100084.97
2023-02-17T05:46:25.869Z,100088.41
2023-02-17T05:47:59.083Z,100093.72
2023-02-17T05:49:32.456Z,100101.56
2023-02-17T05:51:06.520Z,100102.44
2023-02-17T05:52:39.969Z,100095.41
2023-02-17T05:54:12.744Z,100105.69
2023-02-17T05:55:48.526Z,100104.69
2023-02-17T05:57:23.339Z,100102.19
2023-02-17T05:58:56.654Z,100120.44
2023-02-17T06:00:30.174Z,100103.31
2023-02-17T06:02:03.588Z,100106.97
2023-02-17T06:03:37.399Z,100124.34
2023-02-17T06:05:11.305Z,100109.72
2023-02-17T06:06:44.582Z,100121.75
2023-02-17T06:08:18.084Z,100118.47
2023-02-17T06:09:51.263Z,100116.97
2023-02-17T06:11:24.469Z,100120.53
2023-02-17T06:12:59.020Z,100118.09
2023-02-17T06:14:31.328Z,100116.63
2023-02-17T06:16:05.263Z,100117.66
2023-02-17T06:17:39.271Z,100125.56
2023-02-17T06:19:12.676Z,100122.97
2023-02-17T06:20:46.361Z,100110.84
2023-02-17T06:22:19.737Z,100109.13
2023-02-17T06:23:52.927Z,100121.28
2023-02-17T06:25:26.070Z,100116.25
2023-02-17T06:26:59.329Z,100131.88
2023-02-17T06:28:35.149Z,100128.56
2023-02-17T06:30:10.072Z,100126.78
2023-02-17T06:31:43.430Z,100132.03
2023-02-17T06:33:16.917Z,100133.91
2023-02-17T06:34:50.209Z,100140.25
2023-02-17T06:36:23.399Z,100128.59
2023-02-17T06:37:56.805Z,100135.34
2023-02-17T06:39:30.154Z,100132.53
2023-02-17T06:41:03.388Z,100136.78
2023-02-17T06:42:36.785Z,100138.31
2023-02-17T06:44:11.416Z,100132.81
2023-02-17T06:45:44.778Z,100131.56
2023-02-17T06:47:17.979Z,100145.88
2023-02-17T06:48:51.371Z,100142.75
2023-02-17T06:50:24.664Z,100144.81
2023-02-17T06:51:57.950Z,100139.81
2023-02-17T06:53:31.221Z,100132.97
2023-02-17T06:55:04.608Z,100133.06
2023-02-17T06:56:37.985Z,100136.56
2023-02-17T06:58:11.120Z,100133.97
2023-02-17T06:59:46.112Z,100129.56
2023-02-17T07:01:21.545Z,100134.81
2023-02-17T07:02:54.985Z,100127.78
2023-02-17T07:04:28.258Z,100125.16
2023-02-17T07:06:01.526Z,100125.19
2023-02-17T07:07:35.171Z,100122.53
2023-02-17T07:09:08.661Z,100123.47
2023-02-17T07:10:42.001Z,100129.56
2023-02-17T07:12:15.135Z,100125.13
2023-02-17T07:13:49.197Z,100131.19
2023-02-17T07:15:23.967Z,100124.13
2023-02-17T07:16:57.182Z,100124.91
2023-02-17T07:18:30.323Z,100134.41
2023-02-17T07:20:03.774Z,100120.19
2023-02-17T07:21:37.076Z,100127.91
2023-02-17T07:23:10.257Z,100118.03
2023-02-17T07:24:43.433Z,100130.19
2023-02-17T07:26:16.760Z,100115.97
2023-02-17T07:27:50.367Z,100118.38
2023-02-17T07:29:23.794Z,100121.59
2023-02-17T07:30:58.315Z,100127.56
2023-02-17T07:32:31.759Z,100122.34
2023-02-17T07:34:06.093Z,100127.59
2023-02-17T07:35:44.947Z,100124.72
2023-02-17T07:37:20.093Z,100121.66
2023-02-17T07:38:53.320Z,100120.63
2023-02-17T07:40:27.606Z,100123.00
2023-02-17T07:42:01.160Z,100119.47
2023-02-17T07:43:34.613Z,100125.38
2023-02-17T07:45:10.064Z,100118.16
2023-02-17T07:46:44.882Z,100134.06
2023-02-17T07:48:18.014Z,100124.16
2023-02-17T07:49:51.345Z,100122.16
2023-02-17T07:51:24.838Z,100121.78
2023-02-17T07:52:58.111Z,100119.75
2023-02-17T07:54:31.244Z,100113.38
2023-02-17T07:56:05.629Z,100116.97
2023-02-17T07:57:39.376Z,100121.53
2023-02-17T07:59:14.090Z,100121.97
2023-02-17T08:00:47.231Z,100118.78
2023-02-17T08:02:21.964Z,100109.59
2023-02-17T08:03:55.713Z,100106.03
2023-02-17T08:05:30.364Z,100104.53
2023-02-17T08:07:03.435Z,100112.25
2023-02-17T08:08:54.064Z,100109.78
2023-02-17T08:10:45.073Z,100109.59
2023-02-17T08:12:37.811Z,100114.59
2023-02-17T08:14:13.052Z,100111.72
2023-02-17T08:15:47.214Z,100108.00
2023-02-17T08:17:21.818Z,100103.94
2023-02-17T08:18:55.567Z,100097.97
2023-02-17T08:20:28.932Z,100104.56
2023-02-17T08:22:02.378Z,100105.94
2023-02-17T08:23:35.606Z,100094.84
2023-02-17T08:25:09.136Z,100099.50
2023-02-17T08:26:42.335Z,100100.34
2023-02-17T08:28:15.707Z,100097.63
2023-02-17T08:29:49.146Z,100102.34
2023-02-17T08:31:25.119Z,100105.38
2023-02-17T08:32:59.733Z,100098.78
2023-02-17T08:34:34.192Z,100099.03
2023-02-17T08:36:08.503Z,100097.94
2023-02-17T08:37:41.952Z,100092.78
2023-02-17T08:39:17.503Z,100106.66
2023-02-17T08:40:50.796Z,100097.63
2023-02-17T08:42:24.259Z,100086.94
2023-02-17T08:43:57.832Z,100091.06
2023-02-17T08:45:31.695Z,100091.59
2023-02-17T08:47:08.963Z,100096.13
2023-02-17T08:48:44.470Z,100091.81
2023-02-17T08:50:17.738Z,100085.84
2023-02-17T08:51:51.372Z,100091.97
2023-02-17T08:53:25.163Z,100085.66
2023-02-17T08:54:58.359Z,100088.59
2023-02-17T08:56:31.673Z,100078.56
2023-02-17T08:58:04.838Z,100075.75
2023-02-17T08:59:38.235Z,100073.31
2023-02-17T09:01:12.371Z,100076.16
2023-02-17T09:02:46.099Z,100073.53
2023-02-17T09:04:20.710Z,100076.88
2023-02-17T09:05:55.744Z,100077.56
2023-02-17T09:07:29.539Z,100070.97
2023-02-17T09:09:02.724Z,100073.81
2023-02-17T09:10:36.162Z,100070.59
2023-02-17T09:12:09.977Z,100072.88
2023-02-17T09:13:43.251Z,100072.16
2023-02-17T09:15:16.372Z,100067.25
2023-02-17T09:16:49.503Z,100057.53
2023-02-17T09:18:23.280Z,100052.59
2023-02-17T09:19:58.007Z,100058.13
2023-02-17T09:21:31.678Z,100053.91
2023-02-17T09:23:04.970Z,100057.16
2023-02-17T09:24:40.425Z,100048.88
2023-02-17T09:26:15.275Z,100045.91
2023-02-17T09:27:48.520Z,100043.31
2023-02-17T09:29:21.869Z,100046.25
2023-02-17T09:30:55.459Z,100044.69
2023-02-17T09:32:28.850Z,100036.81
2023-02-17T09:34:02.162Z,100034.91
2023-02-17T09:35:38.764Z,100038.13
2023-02-17T09:37:13.412Z,100039.88
2023-02-17T09:38:47.436Z,100033.44
2023-02-17T09:40:23.258Z,100026.25
2023-02-17T09:41:57.853Z,100024.09
2023-02-17T09:43:33.675Z,100025.50
2023-02-17T09:45:12.940Z,100011.06
2023-02-17T09:47:01.289Z,100018.72
2023-02-17T09:48:37.412Z,100017.47
2023-02-17T09:50:15.401Z,100014.84
2023-02-17T09:51:56.171Z,100009.38
2023-02-17T09:53:36.439Z,100004.25
2023-02-17T09:55:14.759Z,100008.09
2023-02-17T09:56:52.385Z,100010.31
2023-02-17T09:58:28.874Z,100010.81
2023-02-17T10:00:09.082Z,99996.25
2023-02-17T10:01:47.400Z,100003.81
2023-02-17T10:03:25.213Z,99991.16
2023-02-17T10:05:01.927Z,99983.72
2023-02-17T10:06:38.537Z,99995.69
2023-02-17T10:08:18.596Z,99989.16
2023-02-17T10:09:55.057Z,99988.13
2023-02-17T10:11:32.771Z,99985.25
2023-02-17T10:13:07.609Z,99994.78
2023-02-17T10:14:46.211Z,99983.69
2023-02-17T10:16:24.505Z,99975.38
2023-02-17T10:18:05.804Z,99974.47
2023-02-17T10:19:49.107Z,99967.44
2023-02-17T10:21:28.671Z,99961.22
2023-02-17T10:23:08.437Z,99965.28
2023-02-17T10:24:42.969Z,99971.03
2023-02-17T10:26:27.475Z,99948.56
2023-02-17T10:28:09.037Z,99956.91
2023-02-17T10:29:52.347Z,99946.16
2023-02-17T10:31:37.023Z,99953.16
2023-02-17T10:33:15.492Z,99957.44
2023-02-17T10:35:05.276Z,99949.44
2023-02-17T10:36:52.415Z,99946.94
2023-02-17T10:38:40.780Z,99948.69
2023-02-17T10:40:19.529Z,99955.38
2023-02-17T10:41:56.554Z,99953.28
2023-02-17T10:43:32.872Z,99945.91
2023-02-17T10:45:09.399Z,99944.97
2023-02-17T10:46:45.008Z,99942.19
2023-02-17T10:48:23.373Z,99942.81
2023-02-17T10:49:58.439Z,99940.78
2023-02-17T10:51:33.159Z,99941.47
2023-02-17T10:53:15.270Z,99942.13
2023-02-17T10:54:53.912Z,99947.00
2023-02-17T10:56:35.619Z,99948.78
2023-02-17T10:58:16.035Z,99942.06
2023-02-17T10:59:50.584Z,99926.75
2023-02-17T11:01:24.472Z,99938.13
2023-02-17T11:02:57.654Z,99938.13
2023-02-17T11:04:42.800Z,99943.47
2023-02-17T11:06:22.353Z,99941.75
2023-02-17T11:08:02.127Z,99937.38
2023-02-17T11:09:36.425Z,99937.97
2023-02-17T11:11:18.262Z,99934.28
2023-02-17T11:12:55.912Z,99934.34
2023-02-17T11:14:31.641Z,99942.22
2023-02-17T11:16:06.176Z,99938.75
2023-02-17T11:17:41.029Z,99928.72
2023-02-17T11:19:24.560Z,99923.66
2023-02-17T11:21:08.289Z,99924.94
2023-02-17T11:22:45.840Z,99929.41
2023-02-17T11:24:19.346Z,99928.56
2023-02-17T11:26:04.652Z,99926.03
2023-02-17T11:27:38.938Z,99937.34
2023-02-17T11:29:22.326Z,99926.81
2023-02-17T11:30:57.545Z,99925.78
2023-02-17T11:32:32.839Z,99914.78
2023-02-17T11:34:16.792Z,99927.25
2023-02-17T11:35:55.032Z,99924.44
2023-02-17T11:37:32.365Z,99926.00
2023-02-17T11:39:18.786Z,99927.25
2023-02-17T11:40:58.113Z,99915.78
2023-02-17T11:42:33.291Z,99920.72
2023-02-17T11:44:10.139Z,99915.03
2023-02-17T11:45:55.663Z,99915.72
2023-02-17T11:47:40.651Z,99922.69
2023-02-17T11:49:47.138Z,99931.78
2023-02-17T11:51:24.648Z,99923.16
2023-02-17T11:53:09.903Z,99919.84
2023-02-17T11:54:52.408Z,99916.41
2023-02-17T11:56:31.155Z,99918.47
2023-02-17T11:58:18.918Z,99911.38
2023-02-17T12:00:05.806Z,99914.91
2023-02-17T12:02:18.287Z,99917.50
2023-02-17T12:04:35.593Z,99921.03
2023-02-17T12:06:15.729Z,99915.38
2023-02-17T12:08:04.134Z,99918.75
2023-02-17T12:09:49.281Z,99910.53
2023-02-17T12:11:32.294Z,99916.47
2023-02-17T12:13:20.800Z,99932.91
2023-02-17T12:15:04.253Z,99903.47
2023-02-17T12:16:47.380Z,99917.78
2023-02-17T12:18:38.221Z,99916.84
2023-02-17T12:20:29.817Z,99913.06
2023-02-17T12:22:14.886Z,99907.72
2023-02-17T12:24:06.932Z,99900.09
2023-02-17T12:25:46.458Z,99896.13
2023-02-17T12:27:33.075Z,99909.41
2023-02-17T12:29:19.325Z,99900.19
2023-02-17T12:31:02.584Z,99895.72
2023-02-17T12:32:49.668Z,99883.03
2023-02-17T12:34:31.322Z,99882.41
2023-02-17T12:36:09.356Z,99887.44
2023-02-17T12:37:49.170Z,99891.06
2023-02-17T12:39:26.229Z,99890.44
2023-02-17T12:41:08.118Z,99891.66
2023-02-17T12:42:47.351Z,99882.78
2023-02-17T12:44:24.709Z,99893.47
2023-02-17T12:46:01.456Z,99888.47
2023-02-17T12:47:45.354Z,99896.66
2023-02-17T12:49:24.727Z,99890.19
2023-02-17T12:51:06.813Z,99876.56
2023-02-17T12:52:42.222Z,99872.00
2023-02-17T12:54:22.087Z,99878.97
2023-02-17T12:55:58.633Z,99889.09
2023-02-17T12:57:42.823Z,99888.97
2023-02-17T12:59:19.390Z,99889.41
2023-02-17T13:00:59.872Z,99859.03
2023-02-17T13:02:33.343Z,99875.78
2023-02-17T13:04:06.610Z,99870.75
2023-02-17T13:05:45.861Z,99891.59
2023-02-17T13:07:41.847Z,99895.38
2023-02-17T13:09:25.482Z,99903.31
2023-02-17T13:11:03.858Z,99913.13
2023-02-17T13:12:41.652Z,99889.75
2023-02-17T13:14:27.210Z,99902.44
2023-02-17T13:16:06.223Z,99894.34
2023-02-17T13:17:42.123Z,99907.25
2023-02-17T13:19:16.319Z,99900.63
2023-02-17T13:21:01.589Z,99886.78
2023-02-17T13:22:36.664Z,99896.84
2023-02-17T13:24:16.649Z,99896.28
2023-02-17T13:26:19.750Z,99902.84
2023-02-17T13:27:53.267Z,99903.47
2023-02-17T13:29:37.035Z,99904.31
2023-02-17T13:31:14.271Z,99909.66
2023-02-17T13:32:47.472Z,99892.03
2023-02-17T13:34:32.878Z,99907.13
2023-02-17T13:36:14.394Z,99889.06
2023-02-17T13:37:49.241Z,99900.34
2023-02-17T13:39:37.753Z,99908.22
2023-02-17T13:41:15.267Z,99902.59
2023-02-17T13:42:49.527Z,99880.22
2023-02-17T13:44:29.795Z,99906.31
2023-02-17T13:46:05.813Z,99901.13
2023-02-17T13:47:41.214Z,99892.50
2023-02-17T13:49:22.649Z,99898.59
2023-02-17T13:50:58.090Z,99886.56
2023-02-17T13:52:33.367Z,99892.06
2023-02-17T13:54:10.132Z,99908.50
2023-02-17T13:55:43.273Z,99895.38
2023-02-17T13:57:25.451Z,99910.00
2023-02-17T13:59:08.945Z,99896.19
2023-02-17T14:00:44.617Z,99901.66
2023-02-17T14:02:35.165Z,99913.38
2023-02-17T14:04:21.164Z,99901.81
2023-02-17T14:05:56.292Z,99906.16
2023-02-17T14:07:29.494Z,99906.16
2023-02-17T14:09:19.866Z,99903.72
2023-02-17T14:10:53.594Z,99872.94
2023-02-17T14:12:31.514Z,99906.78
2023-02-17T14:14:07.799Z,99905.94
2023-02-17T14:15:52.087Z,99908.75
2023-02-17T14:17:33.374Z,99908.81
2023-02-17T14:19:09.167Z,99907.09
2023-02-17T14:20:42.466Z,99883.16
2023-02-17T14:22:28.871Z,99909.84
2023-02-17T14:24:02.403Z,99902.75
2023-02-17T14:25:39.565Z,99899.31
2023-02-17T14:27:14.301Z,99901.09
2023-02-17T14:28:55.029Z,99888.47
2023-02-17T14:30:34.229Z,99898.50
2023-02-17T14:32:07.989Z,99902.13
2023-02-17T14:33:41.394Z,99896.13
2023-02-17T14:35:23.432Z,99898.16
2023-02-17T14:37:08.407Z,99892.81
2023-02-17T14:38:43.469Z,99893.75
2023-02-17T14:40:20.432Z,99897.44
2023-02-17T14:41:54.921Z,99893.13
2023-02-17T14:43:28.757Z,99901.28
2023-02-17T14:45:02.087Z,99895.16
2023-02-17T14:46:36.065Z,99884.66
2023-02-17T14:48:09.496Z,99890.91
2023-02-17T14:49:42.812Z,99881.47
2023-02-17T14:51:17.806Z,99901.03
2023-02-17T14:52:52.416Z,99895.06
2023-02-17T14:54:27.433Z,99894.31
2023-02-17T14:56:06.045Z,99892.47
2023-02-17T14:57:40.817Z,99895.28
2023-02-17T14:59:13.964Z,99902.56
2023-02-17T15:00:47.533Z,99897.53
2023-02-17T15:02:22.402Z,99901.22
2023-02-17T15:03:55.831Z,99898.69
2023-02-17T15:05:29.828Z,99887.38
2023-02-17T15:07:03.360Z,99888.28
2023-02-17T15:08:37.377Z,99886.72
2023-02-17T15:10:26.100Z,99888.59
2023-02-17T15:11:59.693Z,99890.75
2023-02-17T15:13:34.436Z,99885.72
2023-02-17T15:15:08.245Z,99881.75
2023-02-17T15:16:41.826Z,99896.22
2023-02-17T15:18:16.847Z,99890.25
2023-02-17T15:19:50.185Z,99892.19
2023-02-17T15:21:27.906Z,99894.97
2023-02-17T15:23:01.643Z,99890.69
2023-02-17T15:24:36.645Z,99896.44
2023-02-17T15:26:10.935Z,99897.59
2023-02-17T15:27:47.441Z,99894.28
2023-02-17T15:29:25.074Z,99896.19
2023-02-17T15:30:58.570Z,99892.94
2023-02-17T15:32:31.984Z,99895.88
2023-02-17T15:34:13.212Z,99890.03
2023-02-17T15:35:54.710Z,99891.16
2023-02-17T15:37:28.257Z,99888.84
2023-02-17T15:39:01.766Z,99909.53
2023-02-17T15:40:35.446Z,99902.81
2023-02-17T15:42:14.279Z,99912.84
2023-02-17T15:43:49.731Z,99906.97
2023-02-17T15:45:26.968Z,99912.53
2023-02-17T15:47:00.344Z,99916.41
2023-02-17T15:48:34.707Z,99911.44
2023-02-17T15:50:18.178Z,99916.97
2023-02-17T15:51:53.681Z,99918.31
2023-02-17T15:53:26.910Z,99917.75
2023-02-17T15:55:00.568Z,99920.81
2023-02-17T15:56:45.482Z,99911.41
2023-02-17T15:58:22.595Z,99909.94
2023-02-17T15:59:57.624Z,99916.47
2023-02-17T16:01:34.177Z,99919.41
2023-02-17T16:03:07.394Z,99916.91
2023-02-17T16:04:40.634Z,99923.34
2023-02-17T16:06:14.519Z,99918.28
2023-02-17T16:07:48.206Z,99916.88
2023-02-17T16:09:21.899Z,99916.88
2023-02-17T16:10:55.958Z,99923.22
2023-02-17T16:12:29.382Z,99917.34
2023-02-17T16:14:03.078Z,99922.69
2023-02-17T16:15:37.592Z,99929.91
2023-02-17T16:17:16.790Z,99931.00
2023-02-17T16:18:50.568Z,99926.78
2023-02-17T16:20:25.036Z,99931.44
2023-02-17T16:21:58.562Z,99937.03
2023-02-17T16:23:31.834Z,99934.63
2023-02-17T16:25:05.477Z,99936.69
2023-02-17T16:26:40.060Z,99929.88
2023-02-17T16:28:16.653Z,99929.97
2023-02-17T16:29:50.456Z,99943.50
2023-02-17T16:31:24.230Z,99930.38
2023-02-17T16:33:00.254Z,99945.59
2023-02-17T16:34:35.094Z,99948.44
2023-02-17T16:36:15.887Z,99941.59
2023-02-17T16:37:54.345Z,99955.97
2023-02-17T16:39:28.057Z,99948.47
2023-02-17T16:41:01.222Z,99949.75
2023-02-17T16:42:34.554Z,99952.63
2023-02-17T16:44:07.909Z,99948.53
2023-02-17T16:45:50.010Z,99950.66
2023-02-17T16:47:24.152Z,99959.88
2023-02-17T16:48:59.857Z,99950.41
2023-02-17T16:50:35.367Z,99956.75
2023-02-17T16:52:21.715Z,99948.06
2023-02-17T16:53:55.294Z,99950.09
2023-02-17T16:55:30.731Z,99950.28
2023-02-17T16:57:04.041Z,99946.94
2023-02-17T16:58:37.686Z,99942.66
2023-02-17T17:00:13.502Z,99949.00
2023-02-17T17:01:47.714Z,99945.63
2023-02-17T17:03:22.404Z,99941.34
2023-02-17T17:04:57.590Z,99946.72
2023-02-17T17:06:52.195Z,99953.09
2023-02-17T17:08:25.385Z,99953.38
2023-02-17T17:10:15.353Z,99955.63
2023-02-17T17:11:50.147Z,99948.88
2023-02-17T17:13:23.826Z,99950.94
2023-02-17T17:14:57.310Z,99951.84
2023-02-17T17:16:34.973Z,99959.72
2023-02-17T17:18:10.164Z,99957.09
2023-02-17T17:19:44.078Z,99964.16
2023-02-17T17:21:20.613Z,99961.56
2023-02-17T17:22:54.016Z,99948.50
2023-02-17T17:24:27.236Z,99956.59
2023-02-17T17:26:00.708Z,99954.16
2023-02-17T17:27:34.135Z,99962.28
2023-02-17T17:29:08.863Z,99959.81
2023-02-17T23:56:53.755Z,99897.34
2023-02-17T23:58:26.074Z,99900.00
2023-02-17T23:59:59.346Z,99894.78
